createdAt,value
2022-12-03T00:01:15.988Z,76.68
2022-12-03T00:07:59.294Z,76.07
2022-12-03T00:14:47.315Z,76.37
2022-12-03T00:21:31.085Z,76.46
2022-12-03T00:28:17.618Z,76.65
2022-12-03T00:35:04.581Z,76.72
2022-12-03T00:41:47.868Z,77.25
2022-12-03T00:48:38.714Z,77.27
2022-12-03T00:55:21.969Z,77.18
2022-12-03T01:02:05.418Z,77.78
2022-12-03T01:08:49.130Z,78.09
2022-12-03T01:15:34.236Z,77.54
2022-12-03T01:22:17.784Z,76.96
2022-12-03T01:29:03.239Z,76.60
2022-12-03T01:35:47.949Z,76.65
2022-12-03T01:42:31.475Z,77.37
2022-12-03T01:49:16.539Z,77.39
2022-12-03T01:55:59.645Z,77.40
2022-12-03T02:02:48.528Z,76.94
2022-12-03T02:09:32.783Z,76.78
2022-12-03T02:16:18.206Z,76.83
2022-12-03T02:23:19.282Z,77.27
2022-12-03T02:30:03.936Z,76.68
2022-12-03T02:36:48.063Z,76.58
2022-12-03T02:43:34.371Z,76.52
2022-12-03T02:50:17.912Z,75.82
2022-12-03T02:57:08.635Z,76.04
2022-12-03T03:03:53.948Z,76.03
2022-12-03T03:10:36.880Z,76.06
2022-12-03T03:17:29.172Z,75.71
2022-12-03T03:24:29.004Z,75.89
2022-12-03T03:31:12.477Z,75.81
2022-12-03T03:38:01.339Z,75.99
2022-12-03T03:44:47.504Z,76.13
2022-12-03T03:51:32.191Z,76.64
2022-12-03T03:58:16.420Z,77.13
2022-12-03T04:04:59.644Z,76.97
2022-12-03T04:11:41.354Z,76.58
2022-12-03T04:18:09.791Z,76.21
2022-12-03T04:24:53.188Z,76.09
2022-12-03T04:31:34.884Z,75.77
2022-12-03T04:38:18.086Z,75.48
2022-12-03T04:45:03.233Z,75.11
2022-12-03T04:51:53.399Z,74.92
2022-12-03T04:58:39.373Z,75.06
2022-12-03T05:05:30.076Z,74.99
2022-12-03T05:12:16.589Z,75.43
2022-12-03T05:19:07.061Z,76.07
2022-12-03T05:26:00.082Z,75.60
2022-12-03T05:32:43.356Z,75.83
2022-12-03T05:39:27.694Z,76.66
2022-12-03T05:46:13.662Z,76.63
2022-12-03T05:52:58.783Z,76.66
2022-12-03T06:26:26.307Z,76.17
2022-12-03T06:33:09.449Z,76.18
2022-12-03T06:39:55.184Z,76.53
2022-12-03T06:46:39.739Z,76.42
2022-12-03T06:53:24.072Z,76.22
2022-12-03T06:59:51.423Z,75.83
2022-12-03T07:06:34.920Z,75.98
2022-12-03T07:13:20.528Z,75.95
2022-12-03T07:20:04.164Z,75.62
2022-12-03T07:26:50.942Z,75.46
2022-12-03T07:33:34.784Z,75.20
2022-12-03T07:40:19.481Z,75.85
2022-12-03T07:47:03.855Z,75.17
2022-12-03T07:53:49.620Z,75.34
2022-12-03T08:00:32.722Z,75.38
2022-12-03T08:07:16.010Z,76.32
2022-12-03T08:14:02.410Z,76.79
2022-12-03T08:20:51.144Z,77.15
2022-12-03T08:27:34.126Z,76.52
2022-12-03T08:34:17.186Z,76.23
2022-12-03T08:41:00.486Z,76.15
2022-12-03T08:47:52.393Z,76.32
2022-12-03T09:28:09.789Z,76.47
2022-12-03T09:34:53.197Z,76.37
2022-12-03T09:41:41.610Z,76.13
2022-12-03T09:48:27.763Z,76.04
2022-12-03T09:55:16.482Z,75.00
2022-12-03T10:01:59.616Z,74.91
2022-12-03T10:08:46.101Z,74.61
2022-12-03T10:15:32.518Z,76.07
2022-12-03T10:22:24.379Z,76.36
2022-12-03T10:29:17.469Z,75.12
2022-12-03T10:36:20.790Z,75.61
2022-12-03T10:43:17.577Z,76.36
2022-12-03T10:50:14.114Z,76.40
2022-12-03T10:57:01.391Z,76.66
2022-12-03T11:03:45.136Z,76.90
2022-12-03T11:10:30.264Z,78.00
2022-12-03T11:17:24.372Z,78.76
2022-12-03T11:31:14.921Z,79.25
2022-12-03T12:33:10.971Z,77.29
2022-12-03T12:39:57.491Z,77.74
2022-12-03T12:46:51.626Z,77.33
2022-12-03T12:53:35.181Z,76.63
2022-12-03T13:00:25.642Z,76.97
2022-12-03T13:07:11.401Z,77.25
2022-12-03T13:14:02.422Z,76.77
2022-12-03T13:20:57.594Z,75.99
2022-12-03T13:28:00.375Z,75.28
2022-12-03T13:34:45.819Z,75.34
2022-12-03T13:48:11.844Z,77.31
2022-12-03T13:55:15.656Z,77.96
2022-12-03T14:02:05.412Z,77.45
2022-12-03T14:08:52.170Z,77.63
2022-12-03T14:15:36.053Z,78.44
2022-12-03T14:22:19.822Z,78.53
2022-12-03T14:29:08.605Z,78.64
2022-12-03T14:35:57.201Z,79.43
2022-12-03T14:42:42.282Z,79.70
2022-12-03T14:49:25.371Z,79.84
2022-12-03T14:56:09.116Z,80.10
2022-12-03T15:02:52.835Z,80.19
2022-12-03T15:09:36.529Z,80.56
2022-12-03T15:16:23.850Z,81.59
2022-12-03T15:23:11.243Z,81.29
2022-12-03T15:30:01.317Z,81.73
2022-12-03T15:36:47.204Z,81.62
2022-12-03T15:43:33.402Z,82.09
2022-12-03T15:50:16.682Z,81.63
2022-12-03T15:57:01.548Z,82.07
2022-12-03T16:03:48.330Z,82.57
2022-12-03T16:10:31.199Z,83.54
2022-12-03T16:17:14.720Z,82.43
2022-12-03T16:24:05.882Z,82.63
2022-12-03T16:30:49.187Z,83.24
2022-12-03T16:37:32.794Z,82.61
2022-12-03T16:44:17.083Z,82.27
2022-12-03T16:51:03.310Z,81.83
2022-12-03T16:57:46.985Z,82.01
2022-12-03T17:04:30.180Z,81.42
2022-12-03T17:11:15.176Z,81.70
2022-12-03T17:18:04.478Z,81.99
2022-12-03T17:24:48.795Z,80.71
2022-12-03T17:31:41.428Z,80.33
2022-12-03T17:38:27.754Z,80.46
2022-12-03T17:45:12.726Z,80.82
2022-12-03T17:51:56.321Z,81.57
2022-12-03T17:58:39.861Z,82.19
2022-12-03T18:05:22.808Z,81.26
2022-12-03T18:12:06.393Z,81.36
2022-12-03T18:18:53.754Z,81.17
2022-12-03T18:25:41.767Z,81.11
2022-12-03T18:32:29.320Z,79.97
2022-12-03T18:39:15.542Z,80.61
2022-12-03T18:45:59.048Z,80.28
2022-12-03T18:52:47.321Z,79.81
2022-12-03T18:59:30.538Z,79.89
2022-12-03T19:06:17.227Z,80.44
2022-12-03T19:13:02.717Z,79.98
2022-12-03T19:19:46.865Z,79.54
2022-12-03T19:26:37.298Z,79.30
2022-12-03T19:33:28.242Z,79.61
2022-12-03T19:40:11.877Z,80.47
2022-12-03T19:46:56.361Z,80.74
2022-12-03T19:53:41.301Z,80.48
2022-12-03T19:59:44.811Z,80.61
2022-12-03T20:06:08.140Z,80.64
2022-12-03T20:12:02.597Z,80.08
2022-12-03T20:18:10.550Z,80.53
2022-12-03T20:24:08.584Z,80.43
2022-12-03T20:30:51.613Z,80.79
2022-12-03T20:37:34.227Z,80.82
2022-12-03T20:44:22.328Z,81.02
2022-12-03T20:50:46.686Z,81.06
2022-12-03T20:57:17.397Z,81.05
2022-12-03T21:03:50.514Z,81.25
2022-12-03T21:10:33.287Z,81.43
2022-12-03T21:17:09.545Z,81.67
2022-12-03T21:23:52.055Z,81.43
2022-12-03T21:30:35.747Z,82.17
2022-12-03T21:37:17.762Z,81.43
2022-12-03T21:44:00.392Z,81.65
2022-12-03T21:50:22.756Z,81.44
2022-12-03T21:56:49.092Z,80.95
2022-12-03T22:03:39.644Z,81.01
2022-12-03T22:10:23.913Z,81.14
2022-12-03T22:17:06.897Z,80.68
2022-12-03T22:23:49.864Z,80.98
2022-12-03T22:30:32.360Z,80.75
2022-12-03T22:37:15.601Z,80.26
2022-12-03T22:43:58.988Z,81.11
2022-12-03T22:50:42.422Z,80.67
2022-12-03T22:57:25.194Z,81.09
2022-12-03T23:04:08.422Z,81.25
2022-12-03T23:10:54.683Z,80.75
2022-12-03T23:17:38.025Z,81.00
2022-12-03T23:24:20.957Z,80.58
2022-12-03T23:31:03.991Z,81.06
2022-12-03T23:37:47.023Z,81.03
2022-12-03T23:44:30.197Z,80.91
2022-12-03T23:51:19.135Z,80.89
2022-12-03T23:58:02.433Z,80.96
